createdAt,value
2022-12-05T00:01:49.051Z,101852.19
2022-12-05T00:04:16.764Z,101853.00
2022-12-05T00:06:44.988Z,101851.19
2022-12-05T00:09:14.384Z,101856.22
2022-12-05T00:11:44.645Z,101852.59
2022-12-05T00:14:14.425Z,101854.97
2022-12-05T00:16:44.419Z,101855.78
2022-12-05T00:19:15.588Z,101859.00
2022-12-05T00:21:44.225Z,101858.75
2022-12-05T00:24:14.660Z,101856.94
2022-12-05T00:26:42.367Z,101855.94
2022-12-05T00:29:10.402Z,101853.34
2022-12-05T00:31:39.481Z,101860.16
2022-12-05T00:34:07.244Z,101862.56
2022-12-05T00:36:36.278Z,101858.16
2022-12-05T00:39:07.656Z,101856.31
2022-12-05T00:41:35.783Z,101858.72
2022-12-05T00:44:04.364Z,101852.47
2022-12-05T00:46:34.236Z,101851.47
2022-12-05T00:49:05.539Z,101854.06
2022-12-05T00:51:36.467Z,101852.03
2022-12-05T00:54:06.223Z,101847.81
2022-12-05T00:56:34.275Z,101853.66
2022-12-05T00:59:03.283Z,101856.28
2022-12-05T01:01:33.707Z,101854.44
2022-12-05T01:04:06.469Z,101852.03
2022-12-05T01:06:34.401Z,101857.84
2022-12-05T01:09:02.187Z,101856.03
2022-12-05T01:11:30.342Z,101850.00
2022-12-05T01:13:58.633Z,101850.00
2022-12-05T01:16:29.057Z,101856.84
2022-12-05T01:18:58.228Z,101845.56
2022-12-05T01:21:28.020Z,101845.81
2022-12-05T01:23:56.133Z,101854.44
2022-12-05T01:26:24.814Z,101851.63
2022-12-05T01:28:53.678Z,101859.47
2022-12-05T01:31:25.274Z,101855.81
2022-12-05T01:33:54.627Z,101858.25
2022-12-05T01:36:23.525Z,101864.06
2022-12-05T01:38:53.132Z,101858.81
2022-12-05T01:41:23.195Z,101860.63
2022-12-05T01:43:55.967Z,101863.25
2022-12-05T01:46:24.156Z,101860.63
2022-12-05T01:48:54.869Z,101858.81
2022-12-05T01:51:23.822Z,101860.41
2022-12-05T01:53:53.217Z,101863.03
2022-12-05T01:56:21.331Z,101864.88
2022-12-05T01:58:49.748Z,101867.28
2022-12-05T02:01:18.222Z,101864.66
2022-12-05T02:03:50.313Z,101868.84
2022-12-05T02:06:18.130Z,101862.84
2022-12-05T02:08:46.381Z,101861.81
2022-12-05T02:11:15.949Z,101861.59
2022-12-05T02:13:57.821Z,101863.00
2022-12-05T02:16:35.306Z,101860.38
2022-12-05T02:19:15.192Z,101861.38
2022-12-05T02:22:06.232Z,101860.16
2022-12-05T02:25:10.382Z,101861.97
2022-12-05T02:27:56.317Z,101856.72
2022-12-05T02:30:27.266Z,101853.88
2022-12-05T02:33:10.056Z,101853.09
2022-12-05T02:35:47.609Z,101856.31
2022-12-05T02:38:23.580Z,101854.69
2022-12-05T02:41:00.963Z,101855.25
2022-12-05T02:43:35.583Z,101852.66
2022-12-05T02:46:10.912Z,101855.06
2022-12-05T02:48:40.128Z,101850.63
2022-12-05T02:51:10.629Z,101850.63
2022-12-05T02:53:40.070Z,101855.88
2022-12-05T02:56:08.732Z,101853.84
2022-12-05T02:58:43.120Z,101861.69
2022-12-05T03:01:12.987Z,101862.28
2022-12-05T03:03:40.795Z,101853.38
2022-12-05T03:06:14.314Z,101845.53
2022-12-05T03:08:45.995Z,101849.53
2022-12-05T03:11:14.366Z,101859.81
2022-12-05T03:13:42.983Z,101852.72
2022-12-05T03:16:17.718Z,101852.53
2022-12-05T03:18:48.992Z,101854.13
2022-12-05T03:21:26.086Z,101854.69
2022-12-05T03:23:57.758Z,101856.31
2022-12-05T03:26:37.738Z,101858.72
2022-12-05T03:29:21.372Z,101855.31
2022-12-05T03:31:58.074Z,101860.56
2022-12-05T03:34:33.621Z,101862.13
2022-12-05T03:37:07.149Z,101872.63
2022-12-05T03:39:40.079Z,101866.94
2022-12-05T03:42:13.403Z,101868.53
2022-12-05T03:44:49.593Z,101865.72
2022-12-05T03:47:24.117Z,101869.16
2022-12-05T03:49:56.389Z,101868.09
2022-12-05T03:52:30.505Z,101875.97
2022-12-05T03:55:03.239Z,101877.59
2022-12-05T03:57:35.803Z,101877.34
2022-12-05T04:00:09.909Z,101881.59
2022-12-05T04:02:45.603Z,101875.31
2022-12-05T04:05:20.490Z,101876.13
2022-12-05T04:07:53.811Z,101882.97
2022-12-05T04:10:24.780Z,101889.00
2022-12-05T04:12:55.983Z,101893.47
2022-12-05T04:15:49.990Z,101880.94
2022-12-05T04:18:20.912Z,101885.38
2022-12-05T04:21:07.665Z,101885.16
2022-12-05T04:23:35.915Z,101885.94
2022-12-05T04:26:10.025Z,101884.13
2022-12-05T04:28:44.080Z,101883.09
2022-12-05T04:31:16.621Z,101877.84
2022-12-05T04:33:51.481Z,101875.25
2022-12-05T04:36:25.211Z,101876.03
2022-12-05T04:38:56.412Z,101873.66
2022-12-05T04:41:29.907Z,101875.25
2022-12-05T04:44:02.779Z,101874.47
2022-12-05T04:46:30.541Z,101874.22
2022-12-05T04:49:02.822Z,101875.25
2022-12-05T04:51:35.282Z,101870.00
2022-12-05T04:54:10.973Z,101879.03
2022-12-05T04:56:39.500Z,101879.25
2022-12-05T04:59:07.137Z,101878.25
2022-12-05T05:01:40.700Z,101881.66
2022-12-05T05:04:14.862Z,101881.66
2022-12-05T05:06:42.730Z,101883.25
2022-12-05T05:09:11.248Z,101877.00
2022-12-05T05:11:39.192Z,101877.00
2022-12-05T05:14:07.224Z,101875.19
2022-12-05T05:16:37.081Z,101875.97
2022-12-05T05:19:06.012Z,101874.16
2022-12-05T05:21:36.595Z,101881.81
2022-12-05T05:24:06.160Z,101879.19
2022-12-05T05:26:36.172Z,101887.66
2022-12-05T05:29:04.396Z,101879.97
2022-12-05T05:31:32.261Z,101877.97
2022-12-05T05:34:07.485Z,101884.56
2022-12-05T05:36:39.150Z,101881.94
2022-12-05T05:39:12.147Z,101883.56
2022-12-05T05:41:39.887Z,101882.53
2022-12-05T05:44:07.626Z,101884.94
2022-12-05T05:46:36.377Z,101888.38
2022-12-05T05:49:05.122Z,101888.94
2022-12-05T05:51:32.983Z,101882.66
2022-12-05T05:54:02.302Z,101878.22
2022-12-05T05:56:30.762Z,101879.03
2022-12-05T05:59:00.544Z,101879.84
2022-12-05T06:01:28.859Z,101873.56
2022-12-05T06:03:57.057Z,101879.63
2022-12-05T06:06:24.909Z,101880.19
2022-12-05T06:08:52.582Z,101881.22
2022-12-05T06:11:26.344Z,101882.63
2022-12-05T06:13:54.537Z,101882.63
2022-12-05T06:16:22.440Z,101877.13
2022-12-05T06:18:50.741Z,101879.75
2022-12-05T06:21:18.452Z,101882.97
2022-12-05T06:23:46.241Z,101879.34
2022-12-05T06:26:16.342Z,101882.72
2022-12-05T06:28:45.528Z,101885.97
2022-12-05T06:31:16.147Z,101887.53
2022-12-05T06:33:44.152Z,101889.97
2022-12-05T06:36:14.334Z,101882.09
2022-12-05T06:38:42.698Z,101890.53
2022-12-05T06:41:13.194Z,101888.50
2022-12-05T06:43:40.851Z,101891.94
2022-12-05T06:46:12.242Z,101889.06
2022-12-05T06:48:40.214Z,101889.66
2022-12-05T06:51:10.481Z,101895.69
2022-12-05T06:53:38.111Z,101893.66
2022-12-05T06:56:08.492Z,101903.91
2022-12-05T06:58:36.165Z,101902.31
2022-12-05T07:01:22.082Z,101904.53
2022-12-05T07:03:51.252Z,101909.53
2022-12-05T07:06:18.886Z,101907.72
2022-12-05T07:08:47.362Z,101910.91
2022-12-05T07:11:15.052Z,101907.25
2022-12-05T07:13:42.697Z,101914.13
2022-12-05T07:16:10.709Z,101906.81
2022-12-05T07:18:38.636Z,101912.66
2022-12-05T07:21:12.069Z,101911.63
2022-12-05T07:23:40.957Z,101906.38
2022-12-05T07:26:09.600Z,101920.91
2022-12-05T07:28:37.724Z,101929.56
2022-12-05T07:31:08.135Z,101921.69
2022-12-05T07:33:35.851Z,101915.41
2022-12-05T07:36:05.421Z,101924.91
2022-12-05T07:38:34.721Z,101925.47
2022-12-05T07:41:10.206Z,101928.09
2022-12-05T07:43:40.804Z,101924.44
2022-12-05T07:46:11.440Z,101933.13
2022-12-05T07:48:39.785Z,101928.69
2022-12-05T07:51:09.467Z,101936.53
2022-12-05T07:53:39.078Z,101934.50
2022-12-05T07:56:08.660Z,101941.38
2022-12-05T07:58:37.187Z,101948.19
2022-12-05T08:01:09.295Z,101944.56
2022-12-05T08:03:38.074Z,101946.75
2022-12-05T08:06:07.254Z,101946.53
2022-12-05T08:08:34.997Z,101949.94
2022-12-05T08:11:07.143Z,101949.72
2022-12-05T08:13:34.891Z,101950.09
2022-12-05T08:16:04.136Z,101949.06
2022-12-05T08:18:32.272Z,101954.88
2022-12-05T08:21:02.988Z,101955.69
2022-12-05T08:23:31.708Z,101959.13
2022-12-05T08:26:03.133Z,101962.09
2022-12-05T08:28:33.835Z,101961.88
2022-12-05T08:31:06.241Z,101954.59
2022-12-05T08:33:34.152Z,101968.28
2022-12-05T08:36:03.282Z,101962.00
2022-12-05T08:38:31.341Z,101965.22
2022-12-05T08:41:02.350Z,101965.78
2022-12-05T08:43:30.700Z,101966.38
2022-12-05T08:45:59.931Z,101975.84
2022-12-05T08:48:29.627Z,101975.63
2022-12-05T08:50:58.064Z,101970.16
2022-12-05T08:53:25.973Z,101975.19
2022-12-05T08:55:53.616Z,101974.97
2022-12-05T08:58:21.315Z,101979.97
2022-12-05T09:00:48.968Z,101977.16
2022-12-05T09:03:18.017Z,101984.78
2022-12-05T09:05:45.623Z,101988.00
2022-12-05T09:08:13.366Z,101992.00
2022-12-05T09:10:41.193Z,101986.75
2022-12-05T09:13:08.879Z,101995.19
2022-12-05T09:15:39.331Z,101987.88
2022-12-05T09:18:07.073Z,101986.88
2022-12-05T09:20:36.103Z,101986.44
2022-12-05T09:23:03.799Z,101989.84
2022-12-05T09:25:31.444Z,101995.91
2022-12-05T09:27:59.094Z,101993.06
2022-12-05T09:30:26.755Z,101992.84
2022-12-05T09:32:54.809Z,102001.53
2022-12-05T09:35:23.609Z,102003.91
2022-12-05T09:37:52.639Z,101999.25
2022-12-05T09:40:20.482Z,102003.47
2022-12-05T09:43:00.658Z,102005.06
2022-12-05T09:45:34.420Z,102005.06
2022-12-05T09:48:08.121Z,102007.50
2022-12-05T09:50:42.099Z,102006.69
2022-12-05T09:53:21.654Z,102004.63
2022-12-05T09:55:52.266Z,102007.03
2022-12-05T09:58:27.657Z,102002.56
2022-12-05T10:01:01.648Z,102009.44
2022-12-05T10:03:37.452Z,102016.28
2022-12-05T10:06:13.558Z,102011.84
2022-12-05T10:08:56.642Z,102005.34
2022-12-05T10:11:32.915Z,102005.34
2022-12-05T10:14:09.416Z,102007.53
2022-12-05T10:16:43.708Z,102011.72
2022-12-05T10:19:16.726Z,102012.31
2022-12-05T10:21:52.933Z,102013.91
2022-12-05T10:24:27.856Z,102010.84
2022-12-05T10:27:01.366Z,102010.41
2022-12-05T10:29:32.920Z,102005.16
2022-12-05T10:32:08.408Z,102006.75
2022-12-05T10:34:40.849Z,101997.88
2022-12-05T10:37:14.881Z,102001.28
2022-12-05T10:39:44.824Z,102001.84
2022-12-05T10:42:16.503Z,102001.63
2022-12-05T10:44:44.542Z,102002.22
2022-12-05T10:47:13.381Z,102004.59
2022-12-05T10:49:41.232Z,102000.97
2022-12-05T10:52:12.360Z,101996.50
2022-12-05T10:54:47.902Z,101988.16
2022-12-05T10:57:24.236Z,101990.78
2022-12-05T10:59:52.540Z,101997.19
2022-12-05T11:02:26.052Z,101991.94
2022-12-05T11:04:54.512Z,101988.06
2022-12-05T11:07:30.478Z,101990.69
2022-12-05T11:10:01.169Z,101991.47
2022-12-05T11:12:30.208Z,101992.50
2022-12-05T11:15:04.323Z,101994.09
2022-12-05T11:17:34.455Z,101989.88
2022-12-05T11:20:02.687Z,101985.19
2022-12-05T11:22:34.373Z,101987.59
2022-12-05T11:25:32.343Z,101980.50
2022-12-05T11:28:01.935Z,101987.94
2022-12-05T11:30:30.610Z,101983.50
2022-12-05T11:33:13.451Z,101990.13
2022-12-05T11:35:41.758Z,101988.06
2022-12-05T11:38:12.293Z,101990.69
2022-12-05T11:40:48.827Z,101982.81
2022-12-05T11:43:34.618Z,101989.44
2022-12-05T11:46:10.571Z,101993.66
2022-12-05T11:49:02.776Z,101992.84
2022-12-05T11:51:39.628Z,101994.47
2022-12-05T11:55:03.952Z,101985.56
2022-12-05T11:57:42.635Z,101987.13
2022-12-05T12:00:22.140Z,101990.56
2022-12-05T12:03:15.222Z,101995.59
2022-12-05T12:05:49.627Z,101997.22
2022-12-05T12:08:24.170Z,101997.22
2022-12-05T12:11:00.179Z,101989.88
2022-12-05T12:13:45.394Z,101991.50
2022-12-05T12:16:20.812Z,101994.69
2022-12-05T12:19:10.529Z,101990.81
2022-12-05T12:21:54.200Z,101987.38
2022-12-05T12:24:34.088Z,101989.75
2022-12-05T12:27:14.883Z,101984.28
2022-12-05T12:29:55.585Z,101977.19
2022-12-05T12:32:33.518Z,101978.34
2022-12-05T12:35:39.980Z,101977.66
2022-12-05T12:38:29.959Z,101975.22
2022-12-05T12:41:08.077Z,101973.41
2022-12-05T12:43:54.641Z,101974.44
2022-12-05T12:46:39.864Z,101975.91
2022-12-05T12:49:25.305Z,101974.56
2022-12-05T12:51:58.231Z,101976.41
2022-12-05T12:55:02.738Z,101967.47
2022-12-05T12:57:53.036Z,101974.34
2022-12-05T13:00:27.179Z,101965.88
2022-12-05T13:03:05.332Z,101963.81
2022-12-05T13:05:37.278Z,101959.34
2022-12-05T13:08:11.732Z,101959.34
2022-12-05T13:10:43.785Z,101968.03
2022-12-05T13:13:15.679Z,101960.72
2022-12-05T13:15:47.848Z,101958.88
2022-12-05T13:18:19.028Z,101959.69
2022-12-05T13:20:50.028Z,101956.03
2022-12-05T13:23:20.845Z,101955.22
2022-12-05T13:25:49.771Z,101963.34
2022-12-05T13:28:31.910Z,101973.66
2022-12-05T13:31:03.735Z,101959.69
2022-12-05T13:33:36.238Z,101961.75
2022-12-05T13:36:28.994Z,101963.81
2022-12-05T13:39:16.624Z,101959.56
2022-12-05T13:42:04.326Z,101961.88
2022-12-05T13:44:39.557Z,101957.31
2022-12-05T13:47:16.695Z,101967.22
2022-12-05T13:49:51.169Z,101967.22
2022-12-05T13:52:24.739Z,101974.09
2022-12-05T13:54:59.445Z,101969.28
2022-12-05T13:57:48.009Z,101965.84
2022-12-05T14:00:26.748Z,101967.91
2022-12-05T14:02:57.097Z,101966.09
2022-12-05T14:05:55.439Z,101970.78
2022-12-05T14:09:04.433Z,101965.53
2022-12-05T14:11:32.397Z,101973.66
2022-12-05T14:14:04.573Z,101969.41
2022-12-05T14:16:45.105Z,101970.22
2022-12-05T14:19:45.143Z,101972.63
2022-12-05T14:22:27.465Z,101970.78
2022-12-05T14:25:04.858Z,101972.41
2022-12-05T14:27:47.708Z,101967.34
2022-12-05T14:30:23.807Z,101973.66
2022-12-05T14:32:53.787Z,101971.25
2022-12-05T14:35:26.714Z,101969.78
2022-12-05T14:37:58.082Z,101967.16
2022-12-05T14:40:32.410Z,101977.44
2022-12-05T14:43:03.129Z,101977.44
2022-12-05T14:45:39.847Z,101976.63
2022-12-05T14:48:27.720Z,101979.25
2022-12-05T14:50:56.348Z,101975.03
2022-12-05T14:53:38.691Z,101982.94
2022-12-05T14:56:14.191Z,101983.50
2022-12-05T14:58:48.279Z,101983.50
2022-12-05T15:01:19.808Z,101983.69
2022-12-05T15:04:10.252Z,101985.56
2022-12-05T15:06:47.727Z,101988.19
2022-12-05T15:09:37.929Z,101995.03
2022-12-05T15:12:11.840Z,101999.72
2022-12-05T15:14:47.124Z,101998.34
2022-12-05T15:17:22.640Z,102000.16
2022-12-05T15:19:56.971Z,102000.66
2022-12-05T15:22:27.844Z,102002.22
2022-12-05T15:24:57.189Z,102004.28
2022-12-05T15:27:25.226Z,102001.66
2022-12-05T15:29:56.592Z,102005.91
2022-12-05T15:32:28.176Z,102007.72
2022-12-05T15:35:02.363Z,102001.66
2022-12-05T15:37:35.581Z,102001.09
2022-12-05T15:40:13.480Z,102007.94
2022-12-05T15:42:43.704Z,102002.66
2022-12-05T15:45:23.620Z,102008.97
2022-12-05T15:47:55.009Z,102006.34
2022-12-05T15:50:28.779Z,102008.97
2022-12-05T15:52:59.811Z,102005.31
2022-12-05T15:55:34.942Z,102010.56
2022-12-05T15:58:11.220Z,102001.09
2022-12-05T16:00:44.049Z,102002.66
2022-12-05T16:03:17.616Z,102002.09
2022-12-05T16:05:51.383Z,102005.53
2022-12-05T16:08:19.387Z,102012.63
2022-12-05T16:10:48.479Z,102008.97
2022-12-05T16:13:18.505Z,102008.97
2022-12-05T16:15:52.951Z,102011.03
2022-12-05T16:18:31.913Z,102009.44
2022-12-05T16:20:59.876Z,102004.72
2022-12-05T16:23:29.955Z,102010.00
2022-12-05T16:26:20.453Z,102012.06
2022-12-05T16:28:58.331Z,102020.75
2022-12-05T16:31:26.176Z,102013.09
2022-12-05T16:34:01.917Z,102018.13
2022-12-05T16:36:30.038Z,102020.75
2022-12-05T16:39:06.617Z,102013.44
2022-12-05T16:41:37.602Z,102021.88
2022-12-05T16:44:15.204Z,102019.06
2022-12-05T16:46:46.865Z,102017.44
2022-12-05T16:49:35.107Z,102020.63
2022-12-05T16:52:14.076Z,102025.91
2022-12-05T16:54:42.588Z,102015.13
2022-12-05T16:57:14.931Z,102024.06
2022-12-05T16:59:43.642Z,102021.69
2022-12-05T17:02:16.047Z,102021.69
2022-12-05T17:04:44.196Z,102024.31
2022-12-05T17:07:11.881Z,102026.94
2022-12-05T17:09:39.513Z,102025.31
2022-12-05T17:12:12.433Z,102032.19
2022-12-05T17:14:41.445Z,102033.78
2022-12-05T17:17:13.522Z,102032.19
2022-12-05T17:19:41.226Z,102028.53
2022-12-05T17:22:08.864Z,102032.78
2022-12-05T17:24:36.597Z,102026.47
2022-12-05T17:27:04.271Z,102030.13
2022-12-05T17:29:35.664Z,102029.34
2022-12-05T17:32:05.301Z,102029.34
2022-12-05T17:34:32.925Z,102023.25
2022-12-05T17:37:00.835Z,102030.34
2022-12-05T17:39:29.058Z,102032.97
2022-12-05T17:41:56.687Z,102032.19
2022-12-05T17:44:24.542Z,102033.78
2022-12-05T17:46:52.272Z,102037.47
2022-12-05T17:49:22.756Z,102039.03
2022-12-05T17:52:20.425Z,102035.84
2022-12-05T17:54:41.317Z,102033.66
2022-12-05T17:57:09.041Z,102031.84
2022-12-05T17:59:38.214Z,102032.66
2022-12-05T18:02:06.255Z,102043.16
2022-12-05T18:04:35.235Z,102041.53
2022-12-05T18:07:02.887Z,102050.00
2022-12-05T18:09:31.045Z,102044.75
2022-12-05T18:11:58.727Z,102052.88
2022-12-05T18:14:28.261Z,102051.84
2022-12-05T18:16:56.409Z,102054.50
2022-12-05T18:19:23.985Z,102052.44
2022-12-05T18:21:53.160Z,102056.06
2022-12-05T18:24:20.828Z,102054.50
2022-12-05T18:26:48.507Z,102055.25
2022-12-05T18:29:16.282Z,102055.25
2022-12-05T18:31:43.985Z,102063.38
2022-12-05T18:34:11.733Z,102062.59
2022-12-05T18:36:39.395Z,102065.78
2022-12-05T18:39:08.843Z,102059.50
2022-12-05T18:41:36.480Z,102069.00
2022-12-05T18:44:04.188Z,102072.41
2022-12-05T18:46:31.975Z,102071.41
2022-12-05T18:49:03.345Z,102069.00
2022-12-05T18:51:31.583Z,102062.13
2022-12-05T18:53:59.316Z,102069.00
2022-12-05T18:56:30.291Z,102074.28
2022-12-05T18:58:59.812Z,102076.91
2022-12-05T19:01:28.508Z,102075.28
2022-12-05T19:03:58.122Z,102084.78
2022-12-05T19:06:27.946Z,102084.19
2022-12-05T19:08:57.040Z,102085.22
2022-12-05T19:11:27.163Z,102089.91
2022-12-05T19:13:57.621Z,102100.19
2022-12-05T19:16:25.620Z,102092.56
2022-12-05T19:18:55.020Z,102095.19
2022-12-05T19:21:22.859Z,102090.13
2022-12-05T19:23:50.460Z,102089.34
2022-12-05T19:26:18.147Z,102093.00
2022-12-05T19:28:45.853Z,102096.19
2022-12-05T19:31:16.252Z,102086.72
2022-12-05T19:33:46.468Z,102089.91
2022-12-05T19:36:15.830Z,102094.38
2022-12-05T19:38:45.948Z,102086.72
2022-12-05T19:41:15.593Z,102088.31
2022-12-05T19:43:45.074Z,102085.69
2022-12-05T19:46:16.024Z,102085.69
2022-12-05T19:48:43.918Z,102085.69
2022-12-05T19:51:11.791Z,102080.41
2022-12-05T19:53:42.126Z,102077.44
2022-12-05T19:56:13.866Z,102087.16
2022-12-05T19:58:42.188Z,102088.97
2022-12-05T20:01:10.190Z,102092.63
2022-12-05T20:03:39.640Z,102099.25
2022-12-05T20:06:08.421Z,102097.44
2022-12-05T20:08:37.534Z,102101.13
2022-12-05T20:11:07.164Z,102103.50
2022-12-05T20:13:51.237Z,102101.69
2022-12-05T20:16:21.443Z,102104.09
2022-12-05T20:18:50.950Z,102100.44
2022-12-05T20:21:21.962Z,102099.06
2022-12-05T20:23:49.789Z,102107.50
2022-12-05T20:26:19.416Z,102117.22
2022-12-05T20:28:47.534Z,102118.28
2022-12-05T20:31:17.753Z,102116.41
2022-12-05T20:33:46.414Z,102114.38
2022-12-05T20:36:17.841Z,102113.00
2022-12-05T20:38:46.401Z,102105.31
2022-12-05T20:41:16.967Z,102108.19
2022-12-05T20:43:45.528Z,102109.00
2022-12-05T20:46:16.527Z,102109.00
2022-12-05T20:48:48.285Z,102103.75
2022-12-05T20:51:19.317Z,102108.75
2022-12-05T20:53:47.827Z,102117.22
2022-12-05T20:56:17.488Z,102113.59
2022-12-05T20:58:46.276Z,102106.72
2022-12-05T21:01:14.583Z,102107.50
2022-12-05T21:03:42.847Z,102105.31
2022-12-05T21:06:12.242Z,102100.88
2022-12-05T21:08:41.618Z,102107.16
2022-12-05T21:11:10.624Z,102105.56
2022-12-05T21:13:38.582Z,102097.88
2022-12-05T21:16:08.315Z,102097.09
2022-12-05T21:18:37.203Z,102092.63
2022-12-05T21:21:06.715Z,102089.22
2022-12-05T21:23:35.473Z,102092.41
2022-12-05T21:26:06.480Z,102084.72
2022-12-05T21:28:35.515Z,102083.97
2022-12-05T21:31:08.807Z,102088.66
2022-12-05T21:33:36.588Z,102087.59
2022-12-05T21:36:04.907Z,102090.22
2022-12-05T21:38:32.723Z,102086.59
2022-12-05T21:41:00.620Z,102085.34
2022-12-05T21:43:29.976Z,102087.97
2022-12-05T21:45:57.972Z,102086.13
2022-12-05T21:48:26.291Z,102080.09
2022-12-05T21:50:53.771Z,102092.41
2022-12-05T21:53:22.343Z,102086.34
2022-12-05T21:55:59.187Z,102090.59
2022-12-05T21:58:26.868Z,102087.72
2022-12-05T22:00:55.954Z,102087.97
2022-12-05T22:03:23.702Z,102091.97
2022-12-05T22:05:51.371Z,102093.56
2022-12-05T22:08:20.392Z,102087.72
2022-12-05T22:10:48.054Z,102093.78
2022-12-05T22:13:15.726Z,102106.72
2022-12-05T22:15:43.428Z,102109.09
2022-12-05T22:18:12.600Z,102100.44
2022-12-05T22:20:40.279Z,102100.44
2022-12-05T22:23:11.206Z,102096.19
2022-12-05T22:25:41.460Z,102098.81
2022-12-05T22:28:09.062Z,102101.69
2022-12-05T22:30:36.723Z,102102.50
2022-12-05T22:33:04.470Z,102105.91
2022-12-05T22:35:35.855Z,102100.66
2022-12-05T22:38:03.467Z,102094.59
2022-12-05T22:40:31.127Z,102110.38
2022-12-05T22:42:58.784Z,102112.41
2022-12-05T22:45:26.455Z,102110.81
2022-12-05T22:47:54.090Z,102108.63
2022-12-05T22:50:21.746Z,102106.00
2022-12-05T22:52:50.708Z,102106.56
2022-12-05T22:55:18.331Z,102100.31
2022-12-05T22:57:45.964Z,102106.38
2022-12-05T23:00:15.130Z,102106.56
2022-12-05T23:02:43.065Z,102108.19
2022-12-05T23:05:11.006Z,102108.41
2022-12-05T23:07:38.968Z,102103.13
2022-12-05T23:10:09.580Z,102108.63
2022-12-05T23:12:37.664Z,102102.00
2022-12-05T23:15:06.228Z,102108.88
2022-12-05T23:17:34.177Z,102106.00
2022-12-05T23:20:02.241Z,102097.09
2022-12-05T23:22:30.139Z,102103.94
2022-12-05T23:24:58.071Z,102103.13
2022-12-05T23:27:27.548Z,102097.09
2022-12-05T23:29:55.557Z,102100.75
2022-12-05T23:32:23.565Z,102097.09
2022-12-05T23:34:51.466Z,102092.63
2022-12-05T23:37:19.467Z,102091.03
2022-12-05T23:39:47.360Z,102091.84
2022-12-05T23:42:15.571Z,102091.03
2022-12-05T23:44:44.810Z,102097.53
2022-12-05T23:47:12.741Z,102085.78
2022-12-05T23:49:40.661Z,102093.66
2022-12-05T23:52:08.589Z,102094.47
2022-12-05T23:54:36.681Z,102088.41
2022-12-05T23:57:05.703Z,102091.84
2022-12-05T23:59:33.571Z,102089.78
